createdAt,value
2018-07-04T00:03:52.708Z,100896.88
2018-07-04T00:09:04.288Z,100900.31
2018-07-04T00:14:15.662Z,100895.12
2018-07-04T00:19:27.149Z,100893.44
2018-07-04T00:24:39.038Z,100890.25
2018-07-04T00:29:50.547Z,100882.48
2018-07-04T00:35:02.056Z,100877.08
2018-07-04T00:40:14.009Z,100881.13
2018-07-04T00:45:25.667Z,100874.71
2018-07-04T00:50:37.202Z,100876.22
2018-07-04T00:55:48.648Z,100880.93
2018-07-04T01:00:54.150Z,100873.62
2018-07-04T01:06:05.611Z,100885.39
2018-07-04T01:11:17.024Z,100878.98
2018-07-04T01:16:22.400Z,100863.97
2018-07-04T01:21:33.822Z,100863.11
2018-07-04T01:26:45.280Z,100858.04
2018-07-04T01:31:50.660Z,100855.14
2018-07-04T01:37:02.215Z,100859.83
2018-07-04T01:42:13.977Z,100859.58
2018-07-04T01:47:25.467Z,100864.30
2018-07-04T01:52:36.880Z,100858.75
2018-07-04T01:57:48.316Z,100859.62
2018-07-04T02:02:59.644Z,100856.23
2018-07-04T02:08:10.983Z,100860.42
2018-07-04T02:13:22.438Z,100863.77
2018-07-04T02:18:34.036Z,100858.54
2018-07-04T02:23:45.431Z,100858.05
2018-07-04T02:28:56.848Z,100850.77
2018-07-04T02:34:08.268Z,100853.64
2018-07-04T02:39:19.657Z,100850.98
2018-07-04T02:44:31.047Z,100844.08
2018-07-04T02:49:42.542Z,100839.34
2018-07-04T02:54:54.022Z,100840.68
2018-07-04T03:00:05.554Z,100843.83
2018-07-04T03:05:17.353Z,100840.09
2018-07-04T03:10:28.909Z,100837.34
2018-07-04T03:15:34.342Z,100842.15
2018-07-04T03:20:45.887Z,100845.27
2018-07-04T03:25:51.241Z,100835.91
2018-07-04T03:31:03.011Z,100838.14
2018-07-04T03:36:14.565Z,100843.05
2018-07-04T03:41:26.050Z,100838.16
2018-07-04T03:46:37.726Z,100843.28
2018-07-04T03:51:49.306Z,100840.02
2018-07-04T03:57:00.670Z,100843.02
2018-07-04T04:02:12.300Z,100837.48
2018-07-04T04:07:24.153Z,100847.34
2018-07-04T04:12:35.946Z,100858.30
2018-07-04T04:17:47.458Z,100854.36
2018-07-04T04:22:58.909Z,100846.53
2018-07-04T04:28:10.361Z,100848.50
2018-07-04T04:33:21.916Z,100847.57
2018-07-04T04:38:33.303Z,100846.02
2018-07-04T04:43:44.795Z,100847.69
2018-07-04T04:48:56.348Z,100849.10
2018-07-04T04:54:07.766Z,100856.92
2018-07-04T04:59:19.220Z,100854.20
2018-07-04T05:04:30.610Z,100857.06
2018-07-04T05:09:42.010Z,100845.94
2018-07-04T05:14:53.730Z,100854.28
2018-07-04T05:20:05.092Z,100854.37
2018-07-04T05:25:16.571Z,100846.35
2018-07-04T05:30:28.140Z,100845.39
2018-07-04T05:35:39.566Z,100833.42
2018-07-04T05:40:45.149Z,100843.04
2018-07-04T05:45:56.632Z,100835.94
2018-07-04T05:51:08.696Z,100839.91
2018-07-04T05:56:14.461Z,100845.12
2018-07-04T06:01:26.530Z,100831.88
2018-07-04T06:06:38.196Z,100832.63
2018-07-04T06:11:43.765Z,100834.13
2018-07-04T06:16:55.623Z,100825.48
2018-07-04T06:22:07.597Z,100829.50
2018-07-04T06:27:19.423Z,100825.23
2018-07-04T06:32:31.047Z,100822.71
2018-07-04T06:37:35.612Z,100818.55
2018-07-04T06:42:29.194Z,100824.33
2018-07-04T06:47:22.332Z,100827.01
2018-07-04T06:52:15.890Z,100831.84
2018-07-04T06:57:09.383Z,100829.94
2018-07-04T07:02:21.564Z,100826.87
2018-07-04T07:07:33.758Z,100826.09
2018-07-04T07:12:45.798Z,100831.33
2018-07-04T07:17:57.523Z,100841.77
2018-07-04T07:23:09.225Z,100841.16
2018-07-04T07:28:14.962Z,100833.58
2018-07-04T07:33:26.620Z,100822.53
2018-07-04T07:38:38.577Z,100823.73
2018-07-04T07:43:50.282Z,100816.04
2018-07-04T07:49:02.186Z,100821.69
2018-07-04T07:54:13.905Z,100812.23
2018-07-04T07:59:25.657Z,100810.02
2018-07-04T08:04:37.524Z,100814.05
2018-07-04T08:09:49.188Z,100817.28
2018-07-04T08:15:00.995Z,100818.83
2018-07-04T08:20:12.594Z,100819.21
2018-07-04T08:25:24.424Z,100814.24
2018-07-04T08:30:30.472Z,100809.73
2018-07-04T08:35:42.285Z,100810.67
2018-07-04T08:40:54.108Z,100826.11
2018-07-04T08:46:05.862Z,100817.64
2018-07-04T08:51:17.684Z,100838.72
2018-07-04T08:56:29.565Z,100841.09
2018-07-04T09:01:35.513Z,100836.23
2018-07-04T09:06:47.343Z,100846.10
2018-07-04T09:11:59.284Z,100858.86
2018-07-04T09:17:11.177Z,100870.17
2018-07-04T09:22:22.853Z,100875.73
2018-07-04T09:27:34.512Z,100874.43
2018-07-04T09:32:46.209Z,100876.72
2018-07-04T09:37:58.179Z,100875.81
2018-07-04T09:43:10.078Z,100876.52
2018-07-04T09:48:21.659Z,100866.39
2018-07-04T09:53:33.106Z,100866.54
2018-07-04T09:58:44.763Z,100867.34
2018-07-04T10:03:56.684Z,100871.70
2018-07-04T10:09:08.318Z,100867.30
2018-07-04T10:14:20.086Z,100863.91
2018-07-04T10:19:25.708Z,100859.80
2018-07-04T10:24:37.819Z,100861.55
2018-07-04T10:29:49.641Z,100855.43
2018-07-04T10:35:01.266Z,100852.58
2018-07-04T10:40:12.926Z,100848.42
2018-07-04T10:45:24.737Z,100852.25
2018-07-04T10:50:30.602Z,100850.16
2018-07-04T10:55:42.310Z,100840.10
2018-07-04T11:00:54.203Z,100834.89
2018-07-04T11:06:06.192Z,100817.20
2018-07-04T11:11:17.963Z,100806.32
2018-07-04T11:16:29.736Z,100800.27
2018-07-04T11:21:35.392Z,100801.17
2018-07-04T11:26:47.242Z,100807.86
2018-07-04T11:31:58.927Z,100810.47
2018-07-04T11:37:04.717Z,100831.94
2018-07-04T11:42:16.366Z,100837.67
2018-07-04T11:47:09.496Z,100843.92
2018-07-04T11:52:02.677Z,100842.55
2018-07-04T11:56:55.877Z,100834.55
2018-07-04T12:01:49.654Z,100836.30
2018-07-04T12:07:01.740Z,100837.03
2018-07-04T12:11:55.032Z,100836.84
2018-07-04T12:16:48.181Z,100836.05
2018-07-04T12:21:41.564Z,100849.45
2018-07-04T12:26:34.982Z,100851.07
2018-07-04T12:31:28.534Z,100846.69
2018-07-04T12:36:21.657Z,100844.68
2018-07-04T12:41:14.775Z,100838.66
2018-07-04T12:46:08.239Z,100845.88
2018-07-04T12:51:01.584Z,100836.14
2018-07-04T12:56:13.872Z,100835.71
2018-07-04T13:01:25.685Z,100834.69
2018-07-04T13:06:37.452Z,100825.83
2018-07-04T13:11:49.234Z,100828.69
2018-07-04T13:17:01.119Z,100836.86
2018-07-04T13:22:12.810Z,100839.08
2018-07-04T13:27:25.142Z,100840.28
2018-07-04T13:32:36.575Z,100842.61
2018-07-04T13:37:48.081Z,100846.55
2018-07-04T13:42:59.860Z,100850.47
2018-07-04T13:48:05.753Z,100851.83
2018-07-04T13:53:17.951Z,100845.66
2018-07-04T13:58:29.863Z,100844.41
2018-07-04T14:03:41.517Z,100849.72
2018-07-04T14:08:53.106Z,100855.09
2018-07-04T14:14:04.654Z,100858.00
2018-07-04T14:19:16.442Z,100849.05
2018-07-04T14:24:28.053Z,100858.16
2018-07-04T14:29:39.695Z,100844.02
2018-07-04T14:34:51.860Z,100838.02
2018-07-04T14:40:03.882Z,100827.42
2018-07-04T14:45:15.775Z,100822.41
2018-07-04T14:50:29.096Z,100816.57
2018-07-04T14:55:34.878Z,100810.31
2018-07-04T15:00:48.186Z,100801.30
2018-07-04T15:06:00.388Z,100803.17
2018-07-04T15:11:12.242Z,100796.02
2018-07-04T15:16:24.567Z,100785.22
2018-07-04T15:21:36.632Z,100781.12
2018-07-04T15:26:48.372Z,100772.22
2018-07-04T15:32:00.151Z,100766.76
2018-07-04T15:37:12.493Z,100774.00
2018-07-04T15:42:24.288Z,100783.72
2018-07-04T15:47:36.035Z,100788.86
2018-07-04T15:52:48.224Z,100793.27
2018-07-04T15:58:00.092Z,100787.38
2018-07-04T16:03:05.953Z,100781.19
2018-07-04T16:08:17.606Z,100767.14
2018-07-04T16:13:29.394Z,100772.25
2018-07-04T16:18:41.197Z,100773.62
2018-07-04T16:23:52.815Z,100763.75
2018-07-04T16:29:04.687Z,100774.22
2018-07-04T16:34:16.733Z,100775.48
2018-07-04T16:39:28.593Z,100778.73
2018-07-04T16:44:40.578Z,100771.24
2018-07-04T16:49:52.291Z,100771.94
2018-07-04T16:55:04.027Z,100750.53
2018-07-04T17:00:16.542Z,100740.84
2018-07-04T17:05:28.358Z,100730.32
2018-07-04T17:10:40.576Z,100720.17
2018-07-04T17:15:52.148Z,100713.27
2018-07-04T17:20:57.645Z,100707.69
2018-07-04T17:26:09.375Z,100698.64
2018-07-04T17:31:21.184Z,100693.94
2018-07-04T17:36:32.863Z,100696.05
2018-07-04T17:41:44.606Z,100691.91
2018-07-04T17:46:56.299Z,100699.45
2018-07-04T17:52:08.049Z,100715.34
2018-07-04T17:57:19.512Z,100708.16
2018-07-04T18:02:31.222Z,100698.75
2018-07-04T18:07:43.308Z,100712.23
2018-07-04T18:12:55.880Z,100718.97
2018-07-04T18:18:07.868Z,100716.14
2018-07-04T18:23:20.309Z,100710.59
2018-07-04T18:28:32.362Z,100711.52
2018-07-04T18:33:44.064Z,100718.00
2018-07-04T18:38:56.044Z,100727.88
2018-07-04T18:44:07.823Z,100723.80
2018-07-04T18:49:19.566Z,100727.80
2018-07-04T18:54:31.207Z,100728.34
2018-07-04T18:59:43.019Z,100717.13
2018-07-04T19:04:48.649Z,100701.58
2018-07-04T19:10:00.206Z,100708.82
2018-07-04T19:20:38.246Z,100733.80
2018-07-04T19:25:53.261Z,100740.64
2018-07-04T19:31:06.192Z,100750.02
2018-07-04T19:36:21.578Z,100749.04
2018-07-04T19:41:37.227Z,100744.91
2018-07-04T19:46:45.012Z,100750.54
2018-07-04T19:52:07.482Z,100758.04
2018-07-04T19:57:29.490Z,100752.52
2018-07-04T20:02:55.867Z,100740.34
2018-07-04T20:08:10.847Z,100740.03
2018-07-04T20:13:39.162Z,100731.61
2018-07-04T20:19:07.381Z,100732.99
2018-07-04T20:24:22.936Z,100725.09
2018-07-04T20:29:38.706Z,100713.45
2018-07-04T20:35:01.281Z,100697.73
2018-07-04T20:40:14.971Z,100693.53
2018-07-04T20:45:26.776Z,100693.70
2018-07-04T20:50:38.538Z,100709.41
2018-07-04T20:55:50.351Z,100709.72
2018-07-04T21:01:02.172Z,100711.06
2018-07-04T21:06:13.793Z,100722.89
2018-07-04T21:11:25.372Z,100737.20
2018-07-04T21:16:37.019Z,100761.12
2018-07-04T21:21:42.588Z,100758.23
2018-07-04T21:26:54.290Z,100764.79
2018-07-04T21:32:05.663Z,100771.34
2018-07-04T21:37:17.053Z,100781.27
2018-07-04T21:42:28.475Z,100782.95
2018-07-04T21:47:40.054Z,100780.42
2018-07-04T21:52:53.940Z,100785.65
2018-07-04T21:58:05.882Z,100779.23
2018-07-04T22:03:17.707Z,100786.80
2018-07-04T22:08:29.176Z,100791.66
2018-07-04T22:13:40.742Z,100792.14
2018-07-04T22:18:52.283Z,100787.89
2018-07-04T22:24:03.877Z,100768.81
2018-07-04T22:29:15.492Z,100759.30
2018-07-04T22:34:27.096Z,100759.24
2018-07-04T22:39:39.216Z,100767.64
2018-07-04T22:44:50.908Z,100764.41
2018-07-04T22:50:02.364Z,100751.03
2018-07-04T22:55:13.994Z,100740.89
2018-07-04T23:00:25.624Z,100735.29
2018-07-04T23:05:37.280Z,100731.68
2018-07-04T23:10:48.901Z,100737.70
2018-07-04T23:21:05.496Z,100741.08
2018-07-04T23:26:17.152Z,100742.56
2018-07-04T23:31:28.731Z,100745.20
2018-07-04T23:36:40.116Z,100737.59
2018-07-04T23:41:52.919Z,100728.00
2018-07-04T23:47:04.690Z,100735.53
2018-07-04T23:52:16.142Z,100743.91
2018-07-04T23:57:27.543Z,100747.78
